Time;durP1;ratioP1;P1;durP2;ratioP2;P2;SDS_P1;SDS_P2;PMS_P1;PMS_P2;Temp;Humidity;BMP_temperature;BMP_pressure;BME280_temperature;BME280_humidity;BME280_pressure;Samples;Min_cycle;Max_cycle;Signal;HPM_P1;HPM_P2
2023/10/08 00:01:25;;;;;;;3.90;1.50;;;;;;;11.41;94.14;99833.74;131231;1253;108636;-78
2023/10/08 00:04:37;;;;;;;4.00;1.90;;;;;;;11.34;94.02;99825.89;131189;1261;108277;-78
2023/10/08 00:07:43;;;;;;;4.30;1.80;;;;;;;11.29;94.05;99807.81;131199;1254;107805;-78
2023/10/08 00:10:49;;;;;;;3.30;1.40;;;;;;;11.27;94.12;99796.73;131243;1251;106690;-77
2023/10/08 00:13:57;;;;;;;2.90;1.30;;;;;;;11.25;94.12;99805.42;131118;1253;106862;-79
2023/10/08 00:17:02;;;;;;;2.90;1.30;;;;;;;11.23;94.13;99815.60;131315;1253;106650;-79
2023/10/08 00:20:15;;;;;;;5.60;1.60;;;;;;;11.18;94.19;99824.64;131263;1253;106550;-77
2023/10/08 00:23:21;;;;;;;5.10;1.50;;;;;;;11.13;94.34;99823.81;131208;1261;108816;-77
2023/10/08 00:26:29;;;;;;;3.90;1.70;;;;;;;11.03;94.71;99827.92;131129;1251;106723;-77
2023/10/08 00:29:40;;;;;;;5.30;1.90;;;;;;;10.92;94.77;99837.92;131232;1254;107154;-77
2023/10/08 00:32:46;;;;;;;5.90;1.70;;;;;;;10.91;95.11;99830.45;131083;1262;107780;-79
2023/10/08 00:35:51;;;;;;;4.10;1.80;;;;;;;10.93;95.01;99817.80;131225;1254;108644;-77
2023/10/08 00:39:00;;;;;;;3.40;1.70;;;;;;;10.95;95.10;99815.73;131140;1254;107756;-77
2023/10/08 00:42:07;;;;;;;3.80;1.60;;;;;;;10.92;95.16;99807.86;131234;1254;108727;-77
2023/10/08 00:45:14;;;;;;;4.10;1.50;;;;;;;10.97;94.81;99811.23;131171;1263;106758;-77
2023/10/08 00:48:28;;;;;;;3.80;1.60;;;;;;;10.92;95.22;99806.96;131217;1254;106833;-77
2023/10/08 00:51:40;;;;;;;6.90;1.90;;;;;;;10.84;95.48;99816.46;131212;1254;107209;-77
2023/10/08 00:54:54;;;;;;;3.70;1.80;;;;;;;10.80;95.37;99819.70;131072;1251;107726;-76
2023/10/08 00:58:08;;;;;;;6.00;2.10;;;;;;;10.77;95.37;99818.02;131243;1248;106332;-77
2023/10/08 01:01:16;;;;;;;6.30;2.40;;;;;;;10.77;95.50;99815.73;131262;1248;106306;-77
2023/10/08 01:04:26;;;;;;;6.50;2.20;;;;;;;10.81;95.63;99818.49;131183;1261;106237;-77
2023/10/08 01:07:35;;;;;;;7.10;2.00;;;;;;;10.82;95.91;99826.77;131198;1253;106883;-77
2023/10/08 01:10:43;;;;;;;10.20;2.50;;;;;;;10.78;95.48;99829.54;131172;1254;106521;-77
2023/10/08 01:13:49;;;;;;;6.40;2.20;;;;;;;10.78;96.29;99833.97;131214;1254;108261;-77
2023/10/08 01:16:55;;;;;;;7.10;2.80;;;;;;;10.70;96.47;99831.75;131142;1254;107099;-77
2023/10/08 01:20:10;;;;;;;6.10;2.20;;;;;;;10.66;96.64;99828.45;131148;1252;107010;-77
2023/10/08 01:23:16;;;;;;;6.80;2.50;;;;;;;10.65;96.98;99827.38;131202;1254;107478;-77
2023/10/08 01:26:23;;;;;;;4.80;2.30;;;;;;;10.64;97.03;99806.49;131241;1252;106496;-77
2023/10/08 01:29:29;;;;;;;9.20;2.50;;;;;;;10.66;96.63;99821.15;131219;1248;107108;-77
2023/10/08 01:32:35;;;;;;;6.60;2.60;;;;;;;10.66;96.83;99833.52;131236;1252;106850;-76
2023/10/08 01:35:41;;;;;;;5.50;2.20;;;;;;;10.59;97.13;99845.58;131149;1247;106976;-77
2023/10/08 01:38:49;;;;;;;4.40;2.10;;;;;;;10.61;96.93;99846.61;131192;1253;107782;-77
2023/10/08 01:41:55;;;;;;;6.20;2.60;;;;;;;10.66;96.54;99837.02;131191;1251;107838;-76
2023/10/08 01:45:01;;;;;;;7.00;2.50;;;;;;;10.73;96.74;99844.30;131135;1252;107288;-77
2023/10/08 01:48:09;;;;;;;6.90;2.30;;;;;;;10.70;96.57;99850.46;131116;1251;106888;-77
2023/10/08 01:51:24;;;;;;;6.00;2.60;;;;;;;10.65;96.85;99840.67;131131;1253;106935;-77
2023/10/08 01:54:31;;;;;;;7.20;2.50;;;;;;;10.63;96.55;99839.51;131075;1254;107152;-77
2023/10/08 01:57:43;;;;;;;7.40;2.90;;;;;;;10.64;96.52;99840.11;131044;1253;107720;-77
2023/10/08 02:00:52;;;;;;;4.90;2.40;;;;;;;10.63;97.01;99839.55;131190;1251;107076;-80
2023/10/08 02:03:57;;;;;;;6.60;2.70;;;;;;;10.55;96.67;99830.29;131003;1254;108657;-77
2023/10/08 02:07:07;;;;;;;7.30;2.80;;;;;;;10.55;97.09;99848.63;131104;1254;107639;-76
2023/10/08 02:10:14;;;;;;;9.00;3.20;;;;;;;10.52;97.48;99862.89;131137;1254;106767;-76
2023/10/08 02:13:21;;;;;;;6.70;2.60;;;;;;;10.47;97.46;99860.52;131107;1253;107753;-79
2023/10/08 02:16:27;;;;;;;9.20;3.20;;;;;;;10.46;97.50;99840.01;131344;1250;108434;-79
2023/10/08 02:19:34;;;;;;;7.70;2.90;;;;;;;10.45;97.74;99844.43;131170;1251;107726;-77
2023/10/08 02:22:40;;;;;;;6.00;2.80;;;;;;;10.46;97.98;99852.51;131131;1251;107108;-77
2023/10/08 02:25:47;;;;;;;7.10;3.20;;;;;;;10.47;97.74;99857.55;131086;1253;109092;-77
2023/10/08 02:28:53;;;;;;;9.60;3.40;;;;;;;10.47;98.31;99870.35;131153;1257;107701;-77
2023/10/08 02:31:59;;;;;;;11.10;3.60;;;;;;;10.44;98.32;99877.91;131209;1251;108641;-77
2023/10/08 02:35:06;;;;;;;8.00;3.80;;;;;;;10.40;98.45;99892.36;131115;1264;107470;-76
2023/10/08 02:38:13;;;;;;;7.50;3.80;;;;;;;10.38;98.71;99899.02;131076;1263;108933;-77
2023/10/08 02:41:19;;;;;;;9.20;3.40;;;;;;;10.38;99.01;99902.02;131229;1254;108599;-77
2023/10/08 02:44:25;;;;;;;9.40;3.40;;;;;;;10.41;98.17;99896.90;131124;1254;108636;-77
2023/10/08 02:47:31;;;;;;;8.10;3.60;;;;;;;10.46;98.60;99897.42;131203;1254;108060;-77
2023/10/08 02:50:37;;;;;;;8.30;4.10;;;;;;;10.46;98.38;99908.16;131267;1254;107660;-76
2023/10/08 02:53:46;;;;;;;7.00;3.20;;;;;;;10.46;98.38;99907.73;131073;1254;106730;-77
2023/10/08 02:56:57;;;;;;;7.00;3.60;;;;;;;10.51;98.42;99912.79;131119;1254;107681;-77
2023/10/08 03:00:11;;;;;;;9.10;4.20;;;;;;;10.51;98.14;99910.45;131202;1263;107655;-78
2023/10/08 03:03:18;;;;;;;8.50;4.00;;;;;;;10.51;98.84;99921.82;131258;1251;106392;-78
2023/10/08 03:06:24;;;;;;;11.30;4.80;;;;;;;10.47;98.69;99914.41;131308;1254;107251;-78
2023/10/08 03:09:31;;;;;;;7.10;4.10;;;;;;;10.41;98.50;99921.80;131086;1254;106332;-77
2023/10/08 03:12:39;;;;;;;10.40;4.10;;;;;;;10.42;98.87;99922.98;131318;1251;108399;-77
2023/10/08 03:16:06;;;;;;;10.30;4.60;;;;;;;10.39;98.85;99935.67;131162;1251;107584;-77
2023/10/08 03:19:14;;;;;;;8.10;4.60;;;;;;;10.33;99.31;99944.30;131036;1247;108691;-78
2023/10/08 03:22:20;;;;;;;8.70;5.10;;;;;;;10.31;99.38;99940.06;131276;1253;108617;-77
2023/10/08 03:25:26;;;;;;;10.70;4.20;;;;;;;10.28;99.27;99949.79;131268;1253;107644;-78
2023/10/08 03:28:34;;;;;;;6.10;3.80;;;;;;;10.26;99.83;99960.54;131266;1252;108596;-78
2023/10/08 03:31:50;;;;;;;9.80;5.00;;;;;;;10.29;99.30;99958.04;131238;1253;106793;-77
2023/10/08 03:34:59;;;;;;;11.10;5.20;;;;;;;10.32;99.41;99956.94;131167;1254;107820;-77
2023/10/08 03:41:29;;;;;;;8.50;4.80;;;;;;;10.27;99.45;99964.70;131196;1254;107404;-77
2023/10/08 03:44:37;;;;;;;9.40;5.10;;;;;;;10.25;99.53;99972.87;131243;1253;108651;-77
2023/10/08 03:47:46;;;;;;;8.10;4.40;;;;;;;10.28;99.26;99965.67;131212;1253;107759;-77
2023/10/08 03:50:56;;;;;;;9.00;4.70;;;;;;;10.32;99.32;99957.58;131239;1253;106025;-77
2023/10/08 03:54:15;;;;;;;10.50;4.70;;;;;;;10.31;99.17;99961.80;131253;1253;107699;-77
2023/10/08 03:57:25;;;;;;;11.60;5.70;;;;;;;10.24;99.42;99984.63;131304;1253;107639;-77
2023/10/08 04:00:32;;;;;;;13.30;5.80;;;;;;;10.19;99.29;100005.82;131211;1253;108345;-77
2023/10/08 04:03:57;;;;;;;10.10;4.90;;;;;;;10.15;99.52;100008.00;131288;1253;107644;-77
2023/10/08 04:10:49;;;;;;;10.20;5.00;;;;;;;10.10;99.33;100000.00;131304;1248;106458;-78
2023/10/08 04:13:55;;;;;;;7.20;4.60;;;;;;;10.02;99.71;100008.28;131190;1253;107587;-78
2023/10/08 04:17:00;;;;;;;8.90;4.20;;;;;;;9.97;99.36;100007.71;131306;1253;106600;-78
2023/10/08 04:20:32;;;;;;;10.20;5.00;;;;;;;9.92;99.39;100019.16;131194;1248;106590;-77
2023/10/08 04:23:38;;;;;;;9.30;4.50;;;;;;;9.88;99.39;100028.89;131199;1251;108552;-78
2023/10/08 04:26:43;;;;;;;12.70;4.90;;;;;;;9.88;99.44;100035.63;131180;1248;107018;-78
2023/10/08 04:29:49;;;;;;;11.80;4.40;;;;;;;9.86;99.17;100040.06;131364;1262;108592;-78
2023/10/08 04:32:58;;;;;;;8.80;4.30;;;;;;;9.81;99.19;100036.10;131247;1251;106927;-78
2023/10/08 04:36:04;;;;;;;9.00;4.20;;;;;;;9.74;98.84;100043.89;131242;1262;107541;-78
2023/10/08 04:39:15;;;;;;;8.80;3.90;;;;;;;9.67;98.79;100048.88;131230;1253;107477;-78
2023/10/08 04:42:25;;;;;;;9.50;3.50;;;;;;;9.60;98.62;100053.46;131217;1251;107450;-78
2023/10/08 04:45:34;;;;;;;5.80;2.80;;;;;;;9.49;98.18;100055.61;131241;1254;107636;-77
2023/10/08 04:48:43;;;;;;;8.20;2.70;;;;;;;9.40;97.99;100061.82;131360;1253;110082;-77
2023/10/08 04:51:49;;;;;;;7.80;3.20;;;;;;;9.32;98.10;100070.21;131260;1253;108011;-78
2023/10/08 04:54:54;;;;;;;7.40;3.60;;;;;;;9.27;98.14;100079.64;131228;1253;107839;-77
2023/10/08 04:58:05;;;;;;;9.10;3.90;;;;;;;9.20;97.85;100085.39;131160;1249;107689;-77
2023/10/08 05:01:27;;;;;;;6.70;3.10;;;;;;;9.13;97.99;100089.36;131274;1253;106696;-77
2023/10/08 05:04:46;;;;;;;9.50;3.60;;;;;;;9.08;97.59;100091.36;131192;1253;107636;-77
2023/10/08 05:08:01;;;;;;;8.30;3.30;;;;;;;8.97;95.88;100096.70;131224;1253;107872;-77
2023/10/08 05:11:24;;;;;;;6.50;3.00;;;;;;;8.91;96.26;100105.39;131157;1255;108527;-79
2023/10/08 05:14:34;;;;;;;6.50;2.40;;;;;;;8.86;95.73;100117.56;131310;1262;107689;-79
2023/10/08 05:17:56;;;;;;;5.10;2.10;;;;;;;8.77;95.81;100124.45;131420;1254;106621;-79
2023/10/08 05:21:15;;;;;;;5.10;2.20;;;;;;;8.66;95.63;100131.67;131393;1250;107661;-79
2023/10/08 05:24:27;;;;;;;4.20;2.10;;;;;;;8.61;94.94;100146.31;131256;1253;106612;-78
2023/10/08 05:27:56;;;;;;;;;;;;;;;8.55;93.84;100154.74;131306;1249;106792;-78
2023/10/08 05:31:31;;;;;;;3.50;1.70;;;;;;;8.49;93.82;100155.65;131750;1250;107666;-78
2023/10/08 05:34:42;;;;;;;3.50;2.10;;;;;;;8.43;93.45;100163.08;131258;1250;106535;-78
2023/10/08 05:38:02;;;;;;;5.00;1.70;;;;;;;8.38;93.19;100174.63;131404;1248;106848;-77
2023/10/08 05:41:27;;;;;;;3.50;1.80;;;;;;;8.34;92.81;100181.25;131223;1250;108209;-77
2023/10/08 05:44:39;;;;;;;8.10;4.40;;;;;;;8.31;92.53;100187.76;131272;1253;107655;-78
2023/10/08 05:48:07;;;;;;;4.00;2.70;;;;;;;8.31;92.91;100199.13;131204;1252;107163;-78
2023/10/08 05:51:33;;;;;;;7.60;5.00;;;;;;;8.32;93.02;100203.39;131727;1248;106616;-78
2023/10/08 05:55:10;;;;;;;7.70;4.00;;;;;;;8.31;92.74;100212.35;131324;1253;106742;-80
2023/10/08 05:58:35;;;;;;;4.10;2.00;;;;;;;8.27;92.51;100223.02;131271;1252;106730;-77
2023/10/08 06:01:41;;;;;;;3.60;2.20;;;;;;;8.24;92.37;100235.45;131218;1253;107079;-78
2023/10/08 06:05:09;;;;;;;7.80;5.70;;;;;;;8.26;92.24;100245.25;131261;1252;107681;-77
2023/10/08 06:08:21;;;;;;;4.90;2.20;;;;;;;8.28;91.55;100244.92;131263;1261;107199;-77
2023/10/08 06:11:41;;;;;;;2.70;1.70;;;;;;;8.31;90.04;100262.43;131234;1247;107746;-77
2023/10/08 06:15:06;;;;;;;3.40;1.60;;;;;;;8.26;88.04;100276.27;131460;1250;107614;-77
2023/10/08 06:18:14;;;;;;;2.50;1.10;;;;;;;8.19;86.50;100283.23;131254;1247;106386;-77
2023/10/08 06:21:20;;;;;;;3.70;1.90;;;;;;;8.14;84.97;100299.50;131255;1260;106625;-77
2023/10/08 06:24:26;;;;;;;5.20;2.80;;;;;;;8.05;82.53;100305.77;131221;1251;106584;-77
2023/10/08 06:27:32;;;;;;;2.20;1.30;;;;;;;8.03;84.17;100314.76;131211;1251;106584;-77
2023/10/08 06:30:40;;;;;;;4.30;1.20;;;;;;;8.00;82.71;100320.23;131350;1251;106341;-77
2023/10/08 06:33:48;;;;;;;3.60;1.70;;;;;;;8.01;83.78;100330.58;131319;1248;106616;-77
2023/10/08 06:36:54;;;;;;;2.90;1.10;;;;;;;8.09;84.04;100331.14;131228;1251;107673;-80
2023/10/08 06:40:00;;;;;;;2.40;1.40;;;;;;;8.09;81.45;100339.59;131450;1253;106786;-80
2023/10/08 06:43:14;;;;;;;1.90;1.10;;;;;;;8.07;81.28;100345.80;131412;1254;106551;-80
2023/10/08 06:46:21;;;;;;;2.60;1.40;;;;;;;8.06;80.15;100349.97;131570;1253;107014;-81
2023/10/08 06:49:26;;;;;;;3.30;1.20;;;;;;;8.03;80.15;100358.92;131526;1247;107484;-83
2023/10/08 06:52:32;;;;;;;2.30;1.40;;;;;;;8.01;80.04;100372.85;131488;1253;107665;-81
2023/10/08 06:55:40;;;;;;;3.20;1.70;;;;;;;8.03;79.76;100380.73;131459;1252;107013;-80
2023/10/08 06:58:48;;;;;;;2.20;1.20;;;;;;;8.02;78.62;100385.02;131365;1253;107857;-81
2023/10/08 07:01:53;;;;;;;4.80;1.90;;;;;;;8.03;78.55;100380.36;131313;1263;106349;-80
2023/10/08 07:04:59;;;;;;;5.70;1.60;;;;;;;8.04;76.90;100387.69;131364;1248;106969;-79
2023/10/08 07:08:06;;;;;;;1.90;1.10;;;;;;;8.03;77.36;100388.84;131312;1254;106698;-75
2023/10/08 07:11:12;;;;;;;2.80;0.90;;;;;;;8.10;78.66;100404.91;131265;1247;108460;-72
2023/10/08 07:14:18;;;;;;;3.20;0.80;;;;;;;8.14;76.77;100404.19;131587;1250;109525;-75
2023/10/08 07:17:27;;;;;;;2.20;0.90;;;;;;;8.16;75.92;100406.30;131343;1247;106905;-74
2023/10/08 07:20:38;;;;;;;3.10;0.90;;;;;;;8.20;74.84;100421.52;131228;1253;106515;-77
2023/10/08 07:23:56;;;;;;;2.30;1.00;;;;;;;8.27;75.62;100425.02;131244;1254;107492;-74
2023/10/08 07:27:05;;;;;;;3.30;1.30;;;;;;;8.29;74.57;100429.98;131364;1251;107358;-74
2023/10/08 07:30:13;;;;;;;5.50;1.50;;;;;;;8.32;72.55;100440.71;131156;1253;107027;-74
2023/10/08 07:33:19;;;;;;;2.90;1.50;;;;;;;8.35;73.96;100439.22;131261;1251;108440;-75
2023/10/08 07:36:26;;;;;;;2.30;0.90;;;;;;;8.40;72.43;100444.47;131294;1253;107536;-75
2023/10/08 07:39:35;;;;;;;2.00;1.10;;;;;;;8.40;71.59;100442.16;131308;1253;106570;-74
2023/10/08 07:42:40;;;;;;;1.60;0.70;;;;;;;8.45;72.76;100446.03;131377;1248;106678;-74
2023/10/08 07:45:46;;;;;;;2.30;0.90;;;;;;;8.48;69.58;100456.91;131268;1253;106803;-75
2023/10/08 07:48:52;;;;;;;1.40;0.80;;;;;;;8.47;68.82;100465.71;131173;1248;106545;-76
2023/10/08 07:51:59;;;;;;;2.30;1.20;;;;;;;8.48;69.21;100476.10;131452;1248;106914;-76
2023/10/08 07:55:05;;;;;;;9.90;5.60;;;;;;;8.54;71.35;100476.95;131213;1250;106746;-75
2023/10/08 07:58:11;;;;;;;3.80;2.50;;;;;;;8.59;68.98;100473.70;131178;1247;107606;-75
2023/10/08 08:01:17;;;;;;;2.50;1.20;;;;;;;8.62;69.33;100479.61;131267;1248;107715;-75
2023/10/08 08:04:22;;;;;;;2.10;0.80;;;;;;;8.70;69.43;100478.98;131203;1255;106554;-75
2023/10/08 08:07:28;;;;;;;7.00;4.60;;;;;;;8.74;67.75;100488.73;131976;1251;106391;-75
2023/10/08 08:10:36;;;;;;;3.10;0.90;;;;;;;8.78;68.03;100484.45;132252;1247;107026;-75
2023/10/08 08:13:43;;;;;;;2.40;1.20;;;;;;;8.80;67.29;100488.16;131372;1247;108432;-75
2023/10/08 08:16:48;;;;;;;1.40;0.70;;;;;;;8.80;65.57;100502.54;131422;1247;106484;-75
2023/10/08 08:19:55;;;;;;;2.70;1.30;;;;;;;8.82;66.62;100485.48;132133;1250;107453;-77
2023/10/08 08:23:06;;;;;;;3.80;2.60;;;;;;;8.90;65.50;100491.38;131324;1253;107729;-76
2023/10/08 08:26:13;;;;;;;1.60;0.80;;;;;;;8.92;63.91;100498.30;131569;1247;106437;-75
2023/10/08 08:29:24;;;;;;;5.30;2.30;;;;;;;8.95;64.76;100496.45;131418;1253;106594;-75
2023/10/08 08:32:30;;;;;;;14.50;10.30;;;;;;;8.97;62.82;100499.41;131910;1247;107307;-75
2023/10/08 08:35:36;;;;;;;2.00;0.90;;;;;;;8.98;63.25;100505.49;131935;1250;107630;-76
2023/10/08 08:38:41;;;;;;;5.10;3.40;;;;;;;9.02;61.90;100514.45;132488;1247;107707;-77
2023/10/08 08:41:48;;;;;;;4.90;1.20;;;;;;;8.99;61.97;100517.54;131356;1252;106546;-76
2023/10/08 08:44:57;;;;;;;6.50;4.30;;;;;;;9.00;60.10;100514.02;131751;1252;106573;-77
2023/10/08 08:48:04;;;;;;;5.00;3.40;;;;;;;9.03;61.16;100515.92;131300;1252;108459;-77
2023/10/08 08:51:10;;;;;;;7.00;5.00;;;;;;;9.07;60.37;100523.56;131332;1251;107661;-76
2023/10/08 08:54:16;;;;;;;6.80;5.60;;;;;;;9.15;60.06;100527.33;131242;1252;109262;-74
2023/10/08 08:57:22;;;;;;;1.20;0.70;;;;;;;9.18;59.24;100514.74;131171;1253;107623;-73
2023/10/08 09:00:30;;;;;;;1.50;0.90;;;;;;;9.22;58.50;100512.30;131209;1249;108752;-75
2023/10/08 09:03:37;;;;;;;4.90;4.20;;;;;;;9.27;61.89;100512.72;131797;1247;107439;-75
2023/10/08 09:06:44;;;;;;;5.90;5.30;;;;;;;9.38;60.00;100518.48;132437;1249;108134;-76
2023/10/08 09:09:50;;;;;;;2.90;1.20;;;;;;;9.45;58.94;100520.33;133815;1247;106220;-79
2023/10/08 09:12:58;;;;;;;1.30;0.80;;;;;;;9.47;57.84;100526.05;131659;1250;107749;-75
2023/10/08 09:16:12;;;;;;;2.60;1.60;;;;;;;9.50;57.71;100525.71;131278;1253;106934;-75
2023/10/08 09:19:19;;;;;;;4.10;0.80;;;;;;;9.52;54.94;100526.30;131188;1260;107505;-74
2023/10/08 09:22:25;;;;;;;2.70;1.20;;;;;;;9.48;55.42;100530.20;131361;1247;106541;-76
2023/10/08 09:25:32;;;;;;;3.70;2.10;;;;;;;9.49;54.10;100533.67;131394;1247;107828;-78
2023/10/08 09:28:40;;;;;;;1.40;1.00;;;;;;;9.52;54.03;100534.13;131667;1253;108621;-78
2023/10/08 09:31:56;;;;;;;3.60;2.70;;;;;;;9.54;54.80;100532.34;131622;1253;106820;-76
2023/10/08 09:35:05;;;;;;;3.70;0.80;;;;;;;9.65;55.30;100539.09;131321;1248;108626;-76
2023/10/08 09:38:11;;;;;;;1.00;0.70;;;;;;;9.77;57.08;100537.33;131235;1253;108736;-76
2023/10/08 09:41:18;;;;;;;2.10;0.70;;;;;;;9.79;53.50;100552.05;131252;1251;107791;-76
2023/10/08 09:44:25;;;;;;;3.60;2.70;;;;;;;9.82;55.13;100544.17;131196;1247;107019;-76
2023/10/08 09:47:37;;;;;;;2.30;1.50;;;;;;;9.91;52.62;100545.67;131240;1261;107402;-76
2023/10/08 09:50:44;;;;;;;1.30;0.90;;;;;;;9.93;53.13;100556.66;131272;1248;107414;-76
2023/10/08 09:54:01;;;;;;;1.40;0.70;;;;;;;10.00;54.34;100560.93;131249;1253;107187;-75
2023/10/08 09:57:07;;;;;;;1.40;0.70;;;;;;;10.07;52.11;100565.80;131129;1248;156532;-74
2023/10/08 10:00:18;;;;;;;3.00;0.50;;;;;;;10.12;52.77;100563.73;131190;1253;106389;-75
2023/10/08 10:03:25;;;;;;;1.20;0.60;;;;;;;10.13;51.94;100569.01;131173;1251;107013;-74
2023/10/08 10:06:32;;;;;;;0.80;0.50;;;;;;;10.17;51.06;100578.63;131174;1252;109290;-75
2023/10/08 10:09:38;;;;;;;1.10;0.60;;;;;;;10.18;50.65;100576.83;131121;1252;107220;-75
2023/10/08 10:12:44;;;;;;;1.80;1.30;;;;;;;10.21;50.91;100578.34;131137;1253;108404;-75
2023/10/08 10:15:50;;;;;;;1.70;0.80;;;;;;;10.30;52.73;100579.91;131257;1254;108330;-77
2023/10/08 10:19:00;;;;;;;1.40;0.60;;;;;;;10.31;51.28;100582.66;131260;1247;107745;-75
2023/10/08 10:22:11;;;;;;;2.30;1.10;;;;;;;10.30;51.17;100591.27;131148;1253;108152;-76
2023/10/08 10:25:35;;;;;;;1.00;0.50;;;;;;;10.33;48.95;100586.81;131244;1252;106578;-75
2023/10/08 10:28:40;;;;;;;0.90;0.50;;;;;;;10.38;50.82;100588.79;131286;1250;107634;-75
2023/10/08 10:31:47;;;;;;;1.40;0.50;;;;;;;10.47;51.67;100583.65;131202;1253;107696;-75
2023/10/08 10:34:53;;;;;;;1.00;0.50;;;;;;;10.45;49.57;100590.11;131203;1253;106793;-76
2023/10/08 10:38:03;;;;;;;2.60;0.80;;;;;;;10.47;51.11;100593.42;131161;1253;106727;-74
2023/10/08 10:41:09;;;;;;;1.00;0.60;;;;;;;10.50;50.81;100593.56;131179;1253;107020;-77
2023/10/08 10:44:15;;;;;;;2.70;0.80;;;;;;;10.50;50.36;100590.64;131178;1248;106239;-77
2023/10/08 10:47:27;;;;;;;1.50;0.60;;;;;;;10.57;52.74;100588.21;131243;1253;106586;-77
2023/10/08 10:50:33;;;;;;;2.40;0.60;;;;;;;10.64;52.16;100585.63;131186;1253;108221;-77
2023/10/08 10:53:44;;;;;;;1.30;0.60;;;;;;;10.71;50.82;100588.48;131237;1248;107566;-74
2023/10/08 10:57:03;;;;;;;0.90;0.60;;;;;;;10.73;50.67;100594.36;131183;1247;107461;-77
2023/10/08 11:00:47;;;;;;;1.40;0.90;;;;;;;10.75;50.83;100595.06;131246;1253;105552;-75
2023/10/08 11:03:47;;;;;;;1.30;0.60;;;;;;;10.74;50.32;100593.24;131289;1250;107473;-75
2023/10/08 11:06:56;;;;;;;1.20;0.80;;;;;;;10.76;48.02;100605.67;131054;1253;106804;-75
2023/10/08 11:10:15;;;;;;;1.60;0.80;;;;;;;10.70;45.42;100602.46;131394;1247;106883;-78
2023/10/08 11:13:28;;;;;;;1.70;0.90;;;;;;;10.68;46.72;100601.23;131214;1253;107948;-77
2023/10/08 11:16:37;;;;;;;0.90;0.60;;;;;;;10.69;45.70;100596.52;131100;1253;107781;-76
2023/10/08 11:19:46;;;;;;;1.30;0.80;;;;;;;10.74;46.83;100605.31;131223;1248;107540;-76
2023/10/08 11:22:53;;;;;;;2.30;0.70;;;;;;;10.76;47.90;100603.92;131126;1251;106835;-76
2023/10/08 11:26:03;;;;;;;1.20;0.60;;;;;;;10.76;46.38;100602.11;131123;1253;107918;-76
2023/10/08 11:29:14;;;;;;;2.10;0.80;;;;;;;10.82;48.80;100594.98;131213;1253;107723;-76
2023/10/08 11:32:25;;;;;;;0.80;0.50;;;;;;;10.89;48.16;100597.79;131213;1247;106702;-76
2023/10/08 11:35:33;;;;;;;2.30;0.60;;;;;;;10.94;47.37;100605.66;131316;1263;107492;-77
2023/10/08 11:38:42;;;;;;;1.30;0.60;;;;;;;10.97;45.59;100608.27;131237;1251;107782;-77
2023/10/08 11:41:57;;;;;;;1.00;0.60;;;;;;;10.93;43.38;100607.98;131099;1254;107581;-77
2023/10/08 11:45:17;;;;;;;2.10;0.80;;;;;;;10.89;43.83;100601.74;131238;1253;106970;-76
2023/10/08 11:48:28;;;;;;;1.70;0.50;;;;;;;10.97;46.10;100597.77;131161;1253;107652;-77
2023/10/08 11:51:35;;;;;;;2.40;0.70;;;;;;;11.06;45.71;100590.86;131150;1251;107566;-76
2023/10/08 11:54:42;;;;;;;1.80;0.70;;;;;;;11.05;44.90;100594.88;131185;1253;107491;-77
2023/10/08 11:57:48;;;;;;;0.90;0.50;;;;;;;11.11;45.46;100603.42;131254;1253;106659;-77
2023/10/08 12:00:54;;;;;;;2.00;0.70;;;;;;;11.18;46.73;100600.61;131165;1257;108225;-77
2023/10/08 12:04:00;;;;;;;1.70;0.60;;;;;;;11.16;43.64;100602.55;131267;1252;105958;-77
2023/10/08 12:07:07;;;;;;;1.20;0.60;;;;;;;11.15;43.77;100616.36;131321;1253;106864;-78
2023/10/08 12:10:13;;;;;;;1.30;0.60;;;;;;;11.17;42.34;100604.40;131186;1248;107579;-77
2023/10/08 12:13:23;;;;;;;1.10;0.50;;;;;;;11.15;41.62;100603.38;131130;1253;107568;-76
2023/10/08 12:16:30;;;;;;;1.30;0.80;;;;;;;11.13;41.95;100610.50;131129;1247;106638;-77
2023/10/08 12:19:36;;;;;;;1.40;0.60;;;;;;;11.15;44.80;100603.22;131190;1254;106574;-76
2023/10/08 12:22:42;;;;;;;1.40;0.60;;;;;;;11.25;44.50;100607.91;131164;1253;106569;-77
2023/10/08 12:25:51;;;;;;;0.80;0.50;;;;;;;11.24;42.59;100614.30;131173;1253;106309;-78
2023/10/08 12:28:57;;;;;;;1.90;0.90;;;;;;;11.20;43.34;100614.63;131175;1253;107737;-76
2023/10/08 12:32:08;;;;;;;3.40;1.00;;;;;;;11.16;42.50;100617.46;131204;1260;106758;-77
2023/10/08 12:35:14;;;;;;;1.30;0.70;;;;;;;11.19;41.94;100615.79;131133;1251;107710;-76
2023/10/08 12:38:22;;;;;;;1.50;0.70;;;;;;;11.19;40.22;100627.91;131224;1253;107765;-77
2023/10/08 12:41:27;;;;;;;1.00;0.60;;;;;;;11.17;40.47;100617.41;131112;1247;107026;-76
2023/10/08 12:44:33;;;;;;;1.10;0.80;;;;;;;11.17;40.28;100616.89;131240;1253;107400;-76
2023/10/08 12:47:39;;;;;;;1.50;0.60;;;;;;;11.21;40.17;100621.48;131255;1252;106500;-77
2023/10/08 12:50:44;;;;;;;1.70;1.20;;;;;;;11.23;40.62;100615.37;131251;1253;107775;-75
2023/10/08 12:53:58;;;;;;;1.90;0.90;;;;;;;11.25;39.52;100623.38;131106;1248;107931;-75
2023/10/08 12:57:08;;;;;;;1.80;0.60;;;;;;;11.31;40.34;100627.68;131208;1253;105690;-75
2023/10/08 13:00:16;;;;;;;2.60;1.60;;;;;;;11.31;39.28;100631.58;131231;1250;108674;-75
2023/10/08 13:03:23;;;;;;;1.40;0.70;;;;;;;11.33;39.78;100628.68;131303;1251;106141;-76
2023/10/08 13:06:33;;;;;;;2.80;1.00;;;;;;;11.28;38.91;100626.64;131198;1253;107255;-75
2023/10/08 13:09:52;;;;;;;2.70;0.70;;;;;;;11.26;38.90;100632.02;131263;1248;106568;-75
2023/10/08 13:12:57;;;;;;;1.20;0.70;;;;;;;11.28;40.27;100634.86;131216;1251;108573;-77
2023/10/08 13:16:07;;;;;;;2.60;0.60;;;;;;;11.29;39.22;100640.29;131235;1253;106509;-75
2023/10/08 13:19:12;;;;;;;2.90;0.90;;;;;;;11.33;40.55;100629.41;131174;1250;107590;-76
2023/10/08 13:22:19;;;;;;;10.90;4.10;;;;;;;11.39;41.15;100627.71;131162;1253;108588;-75
2023/10/08 13:25:25;;;;;;;4.80;2.10;;;;;;;11.39;40.58;100627.52;131151;1251;108674;-76
2023/10/08 13:28:33;;;;;;;3.80;1.80;;;;;;;11.38;39.60;100629.08;131259;1248;107547;-76
2023/10/08 13:31:39;;;;;;;4.60;1.30;;;;;;;11.47;39.98;100633.95;131372;1253;106517;-75
2023/10/08 13:34:45;;;;;;;2.10;1.20;;;;;;;11.49;39.78;100637.68;131403;1247;108635;-75
2023/10/08 13:37:52;;;;;;;3.20;1.50;;;;;;;11.47;39.26;100642.70;131240;1251;107520;-75
2023/10/08 13:41:04;;;;;;;2.00;0.60;;;;;;;11.34;39.84;100644.23;131233;1253;106780;-76
2023/10/08 13:44:12;;;;;;;3.80;1.80;;;;;;;11.17;40.07;100653.02;131186;1252;107183;-76
2023/10/08 13:47:19;;;;;;;4.10;1.20;;;;;;;11.04;40.54;100648.77;131293;1248;106452;-76
2023/10/08 13:50:25;;;;;;;2.80;1.70;;;;;;;10.91;40.54;100649.97;131210;1247;108471;-76
2023/10/08 13:53:30;;;;;;;1.80;1.10;;;;;;;10.76;40.49;100651.86;131191;1253;106588;-76
2023/10/08 13:56:37;;;;;;;2.00;1.10;;;;;;;10.66;40.94;100653.58;131158;1248;107884;-76
2023/10/08 13:59:43;;;;;;;2.40;1.20;;;;;;;10.67;41.36;100655.31;131114;1253;108696;-76
2023/10/08 14:02:51;;;;;;;4.70;2.60;;;;;;;10.71;41.27;100652.25;131153;1253;107629;-75
2023/10/08 14:06:00;;;;;;;3.90;1.70;;;;;;;10.77;41.39;100653.45;131224;1248;108594;-75
2023/10/08 14:09:09;;;;;;;2.00;0.90;;;;;;;10.79;40.65;100658.21;131263;1253;106979;-76
2023/10/08 14:12:15;;;;;;;1.50;0.80;;;;;;;10.84;40.40;100655.30;131260;1253;107565;-75
2023/10/08 14:15:22;;;;;;;9.20;3.90;;;;;;;10.89;41.34;100656.73;131208;1252;106768;-75
2023/10/08 14:18:37;;;;;;;10.50;4.30;;;;;;;10.97;41.59;100660.77;131429;1250;107800;-76
2023/10/08 14:21:49;;;;;;;13.90;5.90;;;;;;;11.04;41.15;100661.59;131592;1253;108020;-75
2023/10/08 14:24:59;;;;;;;2.90;1.40;;;;;;;11.12;41.40;100664.77;131409;1251;106956;-76
2023/10/08 14:28:07;;;;;;;72.70;29.20;;;;;;;11.19;41.18;100669.54;131327;1248;108230;-76
2023/10/08 14:31:15;;;;;;;9.70;3.40;;;;;;;11.27;40.73;100676.85;131218;1247;107701;-75
2023/10/08 14:34:29;;;;;;;2.20;1.30;;;;;;;11.22;40.94;100665.88;131117;1255;108652;-77